createdAt,value
2022-08-04T00:00:32.957Z,1.27
2022-08-04T00:03:13.784Z,1.53
2022-08-04T00:05:56.456Z,1.50
2022-08-04T00:08:36.071Z,1.70
2022-08-04T00:11:05.258Z,1.60
2022-08-04T00:13:39.539Z,1.30
2022-08-04T00:16:34.845Z,1.70
2022-08-04T00:19:12.245Z,1.70
2022-08-04T00:21:48.855Z,1.37
2022-08-04T00:24:17.991Z,1.30
2022-08-04T00:26:46.887Z,1.53
2022-08-04T00:29:15.116Z,1.73
2022-08-04T00:31:56.748Z,1.87
2022-08-04T00:34:27.728Z,1.40
2022-08-04T00:36:59.367Z,1.50
2022-08-04T00:39:28.987Z,1.80
2022-08-04T00:42:37.415Z,1.77
2022-08-04T00:46:15.812Z,1.87
2022-08-04T00:48:58.042Z,1.70
2022-08-04T00:51:39.152Z,1.43
2022-08-04T00:54:19.657Z,1.43
2022-08-04T00:57:34.014Z,1.57
2022-08-04T01:00:10.004Z,1.50
2022-08-04T01:02:51.113Z,1.80
2022-08-04T01:05:26.254Z,3.20
2022-08-04T01:08:30.640Z,1.70
2022-08-04T01:11:14.206Z,1.90
2022-08-04T01:14:07.063Z,1.70
2022-08-04T01:16:45.352Z,1.67
2022-08-04T01:19:37.627Z,1.40
2022-08-04T01:22:24.589Z,1.67
2022-08-04T01:25:26.031Z,4.13
2022-08-04T01:28:22.845Z,1.30
2022-08-04T01:30:59.672Z,1.93
2022-08-04T01:33:31.318Z,1.80
2022-08-04T01:36:25.402Z,1.90
2022-08-04T01:38:55.657Z,1.97
2022-08-04T01:41:32.701Z,2.03
2022-08-04T01:44:03.312Z,2.77
2022-08-04T01:46:36.417Z,1.63
2022-08-04T01:49:04.828Z,2.00
2022-08-04T01:51:36.006Z,2.13
2022-08-04T01:54:04.342Z,1.87
2022-08-04T01:56:32.677Z,1.87
2022-08-04T01:59:04.312Z,1.83
2022-08-04T02:01:37.729Z,1.70
2022-08-04T02:04:18.090Z,1.80
2022-08-04T02:07:04.278Z,1.67
2022-08-04T02:09:55.081Z,1.90
2022-08-04T02:12:33.350Z,2.00
2022-08-04T02:15:10.860Z,1.73
2022-08-04T02:17:53.509Z,1.93
2022-08-04T02:20:26.427Z,1.57
2022-08-04T02:23:03.310Z,1.40
2022-08-04T02:25:39.481Z,1.67
2022-08-04T02:28:19.346Z,2.30
2022-08-04T02:30:59.367Z,1.80
2022-08-04T02:33:38.214Z,2.00
2022-08-04T02:36:13.876Z,1.60
2022-08-04T02:38:57.861Z,1.73
2022-08-04T02:41:29.028Z,1.73
2022-08-04T02:44:01.540Z,1.70
2022-08-04T02:46:31.975Z,1.90
2022-08-04T02:49:05.553Z,1.97
2022-08-04T02:51:36.683Z,1.80
2022-08-04T02:54:07.310Z,1.70
2022-08-04T02:56:40.694Z,1.80
2022-08-04T02:59:11.247Z,2.17
2022-08-04T03:01:56.874Z,1.90
2022-08-04T03:04:55.526Z,2.33
2022-08-04T03:08:33.562Z,1.97
2022-08-04T03:11:36.719Z,1.80
2022-08-04T03:14:30.304Z,1.83
2022-08-04T03:17:38.250Z,1.77
2022-08-04T03:21:11.942Z,1.90
2022-08-04T03:24:45.344Z,2.00
2022-08-04T03:28:03.784Z,1.73
2022-08-04T03:30:45.692Z,2.13
2022-08-04T03:33:35.442Z,2.17
2022-08-04T03:36:57.356Z,2.00
2022-08-04T03:39:51.147Z,1.90
2022-08-04T03:43:07.426Z,1.53
2022-08-04T03:46:46.298Z,1.60
2022-08-04T03:50:04.506Z,2.20
2022-08-04T03:53:14.175Z,2.17
2022-08-04T03:56:16.005Z,2.40
2022-08-04T03:59:25.681Z,1.70
2022-08-04T04:02:26.064Z,2.13
2022-08-04T04:05:25.486Z,2.00
2022-08-04T04:08:46.673Z,3.10
2022-08-04T04:11:54.213Z,2.10
2022-08-04T04:14:50.882Z,2.03
2022-08-04T04:17:47.741Z,2.23
2022-08-04T04:20:59.030Z,2.47
2022-08-04T04:23:56.779Z,2.17
2022-08-04T04:26:41.704Z,2.10
2022-08-04T04:29:49.440Z,2.07
2022-08-04T04:32:45.055Z,2.13
2022-08-04T04:35:27.964Z,2.17
2022-08-04T04:38:27.000Z,2.40
2022-08-04T04:41:07.260Z,2.27
2022-08-04T04:44:30.672Z,2.20
2022-08-04T04:47:08.506Z,2.20
2022-08-04T04:49:47.586Z,1.80
2022-08-04T04:52:25.502Z,2.40
2022-08-04T04:55:01.514Z,2.27
2022-08-04T04:57:53.810Z,3.07
2022-08-04T05:00:29.738Z,3.97
2022-08-04T05:03:27.213Z,2.70
2022-08-04T05:06:15.117Z,2.23
2022-08-04T05:09:16.930Z,2.83
2022-08-04T05:14:35.308Z,2.30
2022-08-04T05:15:42.627Z,2.60
2022-08-04T05:18:18.856Z,2.50
2022-08-04T05:20:53.080Z,2.77
2022-08-04T05:23:26.606Z,2.53
2022-08-04T05:26:00.738Z,2.17
2022-08-04T05:28:37.189Z,2.40
2022-08-04T05:31:12.250Z,2.53
2022-08-04T05:33:46.320Z,2.47
2022-08-04T05:36:35.351Z,2.13
2022-08-04T05:39:13.454Z,3.57
2022-08-04T05:41:46.213Z,3.30
2022-08-04T05:44:20.521Z,3.10
2022-08-04T05:46:55.699Z,2.40
2022-08-04T05:49:25.038Z,2.40
2022-08-04T05:51:55.144Z,1.97
2022-08-04T05:54:24.544Z,2.50
2022-08-04T05:56:55.953Z,2.50
2022-08-04T05:59:27.049Z,2.30
2022-08-04T06:01:58.405Z,2.07
2022-08-04T06:04:33.171Z,2.07
2022-08-04T06:07:01.320Z,2.07
2022-08-04T06:09:29.698Z,2.00
2022-08-04T06:12:03.762Z,2.00
2022-08-04T06:14:40.244Z,1.73
2022-08-04T06:18:33.782Z,2.03
2022-08-04T06:20:19.629Z,1.87
2022-08-04T06:22:56.885Z,1.60
2022-08-04T06:25:32.759Z,2.40
2022-08-04T06:28:03.028Z,1.90
2022-08-04T06:30:33.714Z,1.60
2022-08-04T06:33:05.233Z,1.87
2022-08-04T06:35:34.635Z,1.87
2022-08-04T06:38:03.882Z,2.10
2022-08-04T06:40:34.089Z,1.80
2022-08-04T06:43:04.356Z,2.07
2022-08-04T06:45:37.229Z,1.90
2022-08-04T06:48:08.225Z,1.90
2022-08-04T06:51:28.279Z,1.87
2022-08-04T06:53:26.999Z,5.03
2022-08-04T06:55:57.622Z,2.60
2022-08-04T06:58:27.195Z,2.30
2022-08-04T07:01:04.356Z,2.23
2022-08-04T07:03:33.185Z,2.00
2022-08-04T07:06:05.807Z,2.10
2022-08-04T07:08:36.863Z,2.07
2022-08-04T07:11:06.514Z,2.30
2022-08-04T07:13:35.464Z,1.80
2022-08-04T07:16:06.722Z,1.73
2022-08-04T07:18:34.928Z,1.70
2022-08-04T07:21:03.447Z,1.80
2022-08-04T07:23:32.353Z,1.60
2022-08-04T07:26:11.634Z,1.93
2022-08-04T07:28:42.277Z,1.73
2022-08-04T07:31:33.158Z,1.43
2022-08-04T07:34:21.047Z,1.40
2022-08-04T07:36:56.027Z,1.90
2022-08-04T07:39:28.345Z,1.63
2022-08-04T07:42:01.560Z,1.40
2022-08-04T07:44:31.881Z,1.40
2022-08-04T07:47:02.525Z,1.57
2022-08-04T07:49:55.473Z,1.40
2022-08-04T07:52:21.887Z,1.50
2022-08-04T07:54:51.683Z,1.50
2022-08-04T07:57:40.570Z,1.70
2022-08-04T08:00:13.347Z,1.60
2022-08-04T08:02:43.839Z,1.70
2022-08-04T08:05:15.011Z,1.50
2022-08-04T08:07:53.998Z,1.80
2022-08-04T08:10:22.602Z,1.63
2022-08-04T08:12:52.433Z,1.80
2022-08-04T08:15:21.971Z,1.43
2022-08-04T08:17:59.786Z,1.27
2022-08-04T08:20:31.508Z,1.50
2022-08-04T08:23:00.862Z,1.97
2022-08-04T08:25:31.148Z,1.33
2022-08-04T08:27:59.663Z,1.52
2022-08-04T08:30:31.644Z,1.60
2022-08-04T08:33:06.465Z,1.60
2022-08-04T08:35:53.184Z,1.58
2022-08-04T08:38:30.023Z,1.65
2022-08-04T08:41:24.173Z,1.40
2022-08-04T08:44:29.810Z,1.50
2022-08-04T08:47:19.901Z,1.40
2022-08-04T08:50:27.954Z,1.50
2022-08-04T08:53:15.527Z,1.40
2022-08-04T08:56:02.846Z,1.97
2022-08-04T08:58:45.710Z,1.60
2022-08-04T09:01:34.728Z,1.80
2022-08-04T09:04:39.843Z,1.67
2022-08-04T09:07:35.352Z,1.25
2022-08-04T09:10:11.692Z,1.48
2022-08-04T09:12:48.203Z,1.23
2022-08-04T09:15:23.397Z,1.90
2022-08-04T09:17:56.797Z,1.65
2022-08-04T09:20:33.064Z,1.33
2022-08-04T09:23:17.346Z,1.27
2022-08-04T09:25:55.929Z,1.60
2022-08-04T09:28:52.482Z,1.63
2022-08-04T09:31:22.583Z,1.25
2022-08-04T09:34:04.693Z,1.30
2022-08-04T09:36:40.527Z,1.58
2022-08-04T09:39:25.864Z,1.70
2022-08-04T09:42:07.762Z,2.83
2022-08-04T09:44:52.420Z,1.52
2022-08-04T09:47:39.592Z,1.15
2022-08-04T09:50:20.141Z,1.27
2022-08-04T09:52:59.465Z,1.35
2022-08-04T09:55:53.918Z,1.50
2022-08-04T09:58:49.072Z,1.50
2022-08-04T10:01:23.474Z,1.30
2022-08-04T10:03:54.831Z,1.65
2022-08-04T10:07:14.837Z,1.35
2022-08-04T10:09:59.671Z,1.55
2022-08-04T10:12:45.186Z,1.50
2022-08-04T10:15:18.734Z,1.38
2022-08-04T10:18:17.881Z,1.40
2022-08-04T10:21:08.961Z,1.90
2022-08-04T10:23:56.765Z,1.42
2022-08-04T10:26:41.603Z,1.60
2022-08-04T10:29:18.264Z,1.80
2022-08-04T10:31:56.630Z,2.10
2022-08-04T10:34:30.846Z,1.65
2022-08-04T10:37:09.160Z,1.50
2022-08-04T10:40:07.322Z,1.85
2022-08-04T10:42:42.965Z,1.75
2022-08-04T10:45:19.973Z,1.48
2022-08-04T10:47:59.627Z,1.10
2022-08-04T10:50:31.526Z,1.40
2022-08-04T10:53:04.951Z,1.60
2022-08-04T10:56:05.592Z,1.63
2022-08-04T10:58:47.348Z,1.65
2022-08-04T11:02:00.810Z,1.65
2022-08-04T11:04:28.016Z,1.50
2022-08-04T11:06:57.480Z,2.30
2022-08-04T11:09:25.823Z,1.60
2022-08-04T11:12:01.817Z,1.50
2022-08-04T11:14:38.747Z,1.27
2022-08-04T11:17:15.065Z,1.13
2022-08-04T11:19:53.513Z,1.40
2022-08-04T11:22:27.524Z,1.53
2022-08-04T11:25:07.187Z,1.30
2022-08-04T11:27:48.063Z,1.50
2022-08-04T11:30:18.288Z,1.10
2022-08-04T11:32:53.651Z,1.40
2022-08-04T11:35:37.352Z,1.40
2022-08-04T11:38:13.806Z,1.20
2022-08-04T11:40:55.761Z,1.33
2022-08-04T11:43:56.197Z,0.90
2022-08-04T11:46:38.150Z,1.47
2022-08-04T11:49:16.005Z,1.13
2022-08-04T11:51:45.694Z,1.40
2022-08-04T11:54:15.007Z,1.40
2022-08-04T11:56:43.804Z,1.60
2022-08-04T11:59:11.994Z,1.03
2022-08-04T12:02:03.851Z,1.10
2022-08-04T12:04:48.401Z,1.27
2022-08-04T12:07:31.055Z,1.13
2022-08-04T12:10:15.502Z,1.20
2022-08-04T12:12:56.944Z,1.20
2022-08-04T12:15:31.757Z,1.07
2022-08-04T12:18:16.011Z,1.40
2022-08-04T12:20:51.477Z,1.10
2022-08-04T12:23:25.659Z,1.10
2022-08-04T12:26:01.830Z,1.30
2022-08-04T12:29:06.855Z,1.03
2022-08-04T12:31:29.638Z,1.10
2022-08-04T12:34:06.168Z,1.10
2022-08-04T12:36:44.862Z,1.60
2022-08-04T12:39:17.778Z,1.20
2022-08-04T12:42:08.919Z,1.13
2022-08-04T12:44:39.891Z,1.30
2022-08-04T12:47:27.004Z,1.10
2022-08-04T12:50:03.611Z,1.03
2022-08-04T12:55:35.279Z,1.27
2022-08-04T12:58:11.531Z,1.27
2022-08-04T13:00:42.134Z,1.33
2022-08-04T13:03:13.727Z,1.00
2022-08-04T13:05:43.412Z,1.17
2022-08-04T13:08:15.317Z,1.33
2022-08-04T13:10:47.448Z,1.40
2022-08-04T13:13:19.190Z,1.30
2022-08-04T13:15:59.143Z,1.10
2022-08-04T13:18:32.546Z,1.03
2022-08-04T13:21:20.211Z,1.37
2022-08-04T13:24:10.277Z,0.83
2022-08-04T13:26:56.269Z,1.50
2022-08-04T13:29:59.865Z,0.90
2022-08-04T13:32:18.490Z,0.90
2022-08-04T13:34:52.654Z,1.10
2022-08-04T13:37:24.288Z,0.80
2022-08-04T13:39:56.435Z,1.00
2022-08-04T13:42:26.990Z,1.30
2022-08-04T13:44:58.952Z,1.20
2022-08-04T13:47:33.405Z,1.07
2022-08-04T13:50:19.520Z,1.83
2022-08-04T13:52:49.106Z,1.00
2022-08-04T13:55:28.458Z,1.00
2022-08-04T13:58:06.303Z,1.30
2022-08-04T14:00:55.757Z,1.30
2022-08-04T14:03:31.572Z,1.10
2022-08-04T14:06:16.240Z,0.90
2022-08-04T14:08:53.766Z,1.00
2022-08-04T14:12:09.611Z,1.13
2022-08-04T14:14:25.799Z,1.20
2022-08-04T14:16:59.961Z,0.93
2022-08-04T14:19:36.124Z,1.40
2022-08-04T14:22:04.845Z,1.17
2022-08-04T14:24:34.110Z,1.10
2022-08-04T14:27:03.599Z,1.00
2022-08-04T14:29:41.772Z,1.57
2022-08-04T14:32:14.287Z,1.07
2022-08-04T14:34:45.819Z,1.27
2022-08-04T14:37:20.513Z,1.10
2022-08-04T14:40:18.955Z,1.20
2022-08-04T14:42:54.771Z,1.10
2022-08-04T14:45:36.694Z,0.97
2022-08-04T14:48:09.943Z,1.00
2022-08-04T14:50:41.332Z,1.10
2022-08-04T14:53:13.139Z,1.00
2022-08-04T14:55:48.528Z,1.70
2022-08-04T14:58:36.510Z,1.00
2022-08-04T15:01:09.633Z,1.27
2022-08-04T15:03:50.078Z,1.30
2022-08-04T15:06:23.828Z,1.13
2022-08-04T15:08:54.004Z,1.10
2022-08-04T15:11:24.275Z,1.13
2022-08-04T15:13:54.713Z,1.00
2022-08-04T15:16:24.981Z,0.90
2022-08-04T15:18:54.895Z,1.10
2022-08-04T15:21:28.949Z,0.80
2022-08-04T15:23:58.695Z,1.00
2022-08-04T15:26:34.440Z,1.30
2022-08-04T15:29:16.660Z,1.10
2022-08-04T15:32:06.581Z,1.10
2022-08-04T15:34:52.840Z,1.40
2022-08-04T15:37:34.063Z,0.90
2022-08-04T15:40:10.849Z,1.03
2022-08-04T15:42:47.459Z,1.00
2022-08-04T15:46:02.418Z,1.13
2022-08-04T15:48:27.173Z,1.03
2022-08-04T15:51:05.239Z,1.33
2022-08-04T15:54:23.504Z,1.10
2022-08-04T15:57:02.377Z,1.20
2022-08-04T16:00:11.225Z,1.20
2022-08-04T16:02:44.658Z,0.93
2022-08-04T16:05:36.870Z,3.43
2022-08-04T16:08:18.094Z,1.40
2022-08-04T16:10:50.978Z,1.00
2022-08-04T16:13:22.146Z,1.00
2022-08-04T16:15:53.579Z,1.43
2022-08-04T16:18:43.827Z,1.20
2022-08-04T16:21:26.744Z,1.03
2022-08-04T16:24:18.751Z,1.17
2022-08-04T16:26:54.332Z,1.43
2022-08-04T16:29:35.523Z,1.10
2022-08-04T16:32:23.149Z,1.20
2022-08-04T16:34:59.760Z,1.13
2022-08-04T16:37:34.677Z,1.20
2022-08-04T16:40:33.324Z,1.50
2022-08-04T16:43:09.546Z,1.30
2022-08-04T16:45:59.996Z,1.80
2022-08-04T16:48:29.930Z,1.93
2022-08-04T16:51:07.609Z,1.47
2022-08-04T16:53:52.643Z,1.20
2022-08-04T16:56:34.177Z,1.10
2022-08-04T16:59:11.146Z,1.33
2022-08-04T17:01:40.257Z,1.47
2022-08-04T17:04:08.443Z,1.30
2022-08-04T17:06:40.452Z,1.20
2022-08-04T17:09:14.940Z,1.30
2022-08-04T17:11:44.907Z,1.20
2022-08-04T17:14:13.635Z,1.23
2022-08-04T17:16:44.381Z,1.23
2022-08-04T17:19:23.885Z,1.10
2022-08-04T17:22:04.949Z,1.10
2022-08-04T17:24:35.709Z,1.13
2022-08-04T17:28:08.750Z,1.30
2022-08-04T17:29:53.075Z,1.07
2022-08-04T17:32:23.211Z,1.10
2022-08-04T17:34:54.022Z,1.77
2022-08-04T17:37:52.915Z,1.30
2022-08-04T17:40:22.463Z,1.23
2022-08-04T17:44:02.825Z,1.20
2022-08-04T17:46:29.521Z,1.50
2022-08-04T17:49:05.971Z,1.17
2022-08-04T17:52:02.916Z,1.20
2022-08-04T17:54:40.004Z,1.10
2022-08-04T17:57:20.003Z,1.60
2022-08-04T17:59:56.318Z,1.20
2022-08-04T18:02:33.347Z,1.30
2022-08-04T18:05:07.724Z,1.20
2022-08-04T18:08:45.540Z,1.30
2022-08-04T18:10:51.828Z,1.37
2022-08-04T18:13:26.038Z,1.33
2022-08-04T18:16:03.407Z,1.10
2022-08-04T18:18:31.857Z,1.37
2022-08-04T18:21:02.992Z,1.30
2022-08-04T18:23:33.362Z,1.10
2022-08-04T18:26:03.565Z,0.97
2022-08-04T18:28:33.480Z,1.30
2022-08-04T18:31:02.863Z,1.13
2022-08-04T18:36:32.614Z,1.30
2022-08-04T18:39:13.321Z,1.10
2022-08-04T18:42:02.408Z,2.20
2022-08-04T18:44:51.767Z,1.13
2022-08-04T18:47:22.977Z,1.60
2022-08-04T18:51:11.321Z,1.37
2022-08-04T18:52:45.176Z,1.10
2022-08-04T18:55:51.602Z,1.17
2022-08-04T18:58:07.272Z,1.20
2022-08-04T19:00:45.535Z,1.60
2022-08-04T19:03:16.340Z,1.40
2022-08-04T19:05:50.279Z,1.23
2022-08-04T19:08:33.371Z,1.97
2022-08-04T19:11:38.335Z,2.50
2022-08-04T19:13:58.442Z,1.40
2022-08-04T19:16:28.520Z,1.60
2022-08-04T19:18:57.204Z,2.07
2022-08-04T19:22:01.342Z,1.50
2022-08-04T19:24:32.494Z,1.70
2022-08-04T19:27:06.972Z,1.50
2022-08-04T19:29:41.166Z,1.77
2022-08-04T19:32:14.798Z,2.60
2022-08-04T19:34:46.177Z,2.30
2022-08-04T19:37:56.661Z,2.40
2022-08-04T19:40:06.744Z,2.50
2022-08-04T19:42:35.082Z,2.00
2022-08-04T19:45:05.756Z,3.37
2022-08-04T19:48:16.828Z,2.53
2022-08-04T19:50:23.637Z,1.80
2022-08-04T19:52:52.944Z,2.40
2022-08-04T19:55:36.696Z,1.60
2022-08-04T19:58:07.305Z,1.90
2022-08-04T20:00:39.048Z,1.47
2022-08-04T20:03:11.544Z,1.80
2022-08-04T20:05:54.455Z,1.60
2022-08-04T20:08:24.940Z,1.73
2022-08-04T20:10:54.692Z,1.77
2022-08-04T20:13:30.974Z,2.60
2022-08-04T20:16:20.231Z,1.80
2022-08-04T20:19:00.805Z,1.70
2022-08-04T20:21:36.604Z,1.87
2022-08-04T20:24:40.010Z,1.70
2022-08-04T20:27:11.531Z,1.50
2022-08-04T20:29:48.423Z,1.80
2022-08-04T20:32:22.257Z,1.60
2022-08-04T20:34:52.067Z,1.40
2022-08-04T20:37:22.875Z,1.87
2022-08-04T20:39:55.929Z,2.03
2022-08-04T20:42:27.117Z,1.93
2022-08-04T20:44:56.501Z,1.77
2022-08-04T20:47:26.897Z,1.67
2022-08-04T20:50:05.505Z,1.90
2022-08-04T20:52:37.987Z,1.87
2022-08-04T20:55:09.064Z,2.33
2022-08-04T20:57:47.934Z,1.47
2022-08-04T21:00:17.826Z,1.90
2022-08-04T21:02:59.456Z,1.70
2022-08-04T21:05:27.759Z,1.83
2022-08-04T21:07:56.662Z,1.90
2022-08-04T21:10:25.742Z,1.87
2022-08-04T21:12:54.658Z,1.60
2022-08-04T21:15:25.584Z,1.70
2022-08-04T21:17:58.810Z,1.70
2022-08-04T21:20:35.306Z,1.67
2022-08-04T21:23:05.286Z,1.60
2022-08-04T21:25:42.552Z,1.60
2022-08-04T21:28:11.764Z,1.70
2022-08-04T21:30:54.010Z,1.67
2022-08-04T21:36:19.474Z,1.70
2022-08-04T21:38:51.451Z,2.00
2022-08-04T21:41:24.722Z,1.83
2022-08-04T21:43:56.340Z,1.77
2022-08-04T21:46:30.080Z,2.00
2022-08-04T21:48:58.275Z,1.73
2022-08-04T21:51:58.121Z,2.17
2022-08-04T21:54:20.535Z,1.70
2022-08-04T21:56:51.087Z,2.00
2022-08-04T21:59:23.880Z,2.17
2022-08-04T22:02:01.396Z,1.40
2022-08-04T22:04:30.811Z,1.73
2022-08-04T22:07:03.038Z,1.60
2022-08-04T22:09:38.773Z,1.80
2022-08-04T22:12:12.122Z,1.67
2022-08-04T22:14:41.057Z,1.57
2022-08-04T22:17:13.879Z,1.77
2022-08-04T22:19:54.937Z,2.50
2022-08-04T22:22:29.290Z,2.03
2022-08-04T22:25:12.400Z,2.20
2022-08-04T22:28:01.584Z,1.50
2022-08-04T22:30:36.382Z,1.63
2022-08-04T22:33:08.207Z,1.63
2022-08-04T22:35:48.955Z,1.43
2022-08-04T22:38:24.394Z,1.73
2022-08-04T22:40:58.989Z,2.30
2022-08-04T22:43:32.227Z,1.70
2022-08-04T22:46:05.268Z,1.80
2022-08-04T22:48:34.744Z,1.83
2022-08-04T22:51:04.601Z,1.67
2022-08-04T22:53:36.408Z,1.93
2022-08-04T22:56:09.435Z,1.80
2022-08-04T22:58:45.405Z,1.90
2022-08-04T23:01:15.512Z,1.80
2022-08-04T23:03:55.479Z,2.00
2022-08-04T23:06:28.725Z,1.87
2022-08-04T23:08:59.323Z,1.80
2022-08-04T23:11:34.440Z,1.80
2022-08-04T23:14:04.702Z,2.10
2022-08-04T23:16:33.192Z,2.10
2022-08-04T23:19:09.723Z,2.50
2022-08-04T23:21:47.367Z,2.33
2022-08-04T23:24:30.376Z,2.93
2022-08-04T23:26:58.673Z,3.07
2022-08-04T23:29:27.488Z,2.40
2022-08-04T23:31:59.225Z,2.37
2022-08-04T23:34:29.161Z,3.27
2022-08-04T23:36:59.033Z,3.80
2022-08-04T23:40:03.393Z,2.90
2022-08-04T23:42:21.256Z,3.20
2022-08-04T23:44:50.386Z,4.80
2022-08-04T23:48:18.389Z,5.50
2022-08-04T23:50:09.501Z,6.00
2022-08-04T23:52:37.681Z,6.23
2022-08-04T23:55:09.735Z,5.43
2022-08-04T23:58:06.215Z,6.10
